sensor_id;sensor_type;location;lat;lon;timestamp;P1;durP1;ratioP1;P2;durP2;ratioP2
78686;SDS011;68002;52.310;6.990;2023-08-17T00:01:58;3.75;;;2.85;;
78686;SDS011;68002;52.310;6.990;2023-08-17T00:04:23;3.80;;;1.50;;
78686;SDS011;68002;52.310;6.990;2023-08-17T00:06:48;3.33;;;2.30;;
78686;SDS011;68002;52.310;6.990;2023-08-17T00:09:13;5.32;;;2.65;;
78686;SDS011;68002;52.310;6.990;2023-08-17T00:11:39;5.53;;;2.85;;
78686;SDS011;68002;52.310;6.990;2023-08-17T00:14:04;3.63;;;2.42;;
78686;SDS011;68002;52.310;6.990;2023-08-17T00:16:29;3.60;;;2.90;;
78686;SDS011;68002;52.310;6.990;2023-08-17T00:18:54;4.70;;;2.33;;
78686;SDS011;68002;52.310;6.990;2023-08-17T00:21:20;4.20;;;2.15;;
78686;SDS011;68002;52.310;6.990;2023-08-17T00:23:45;4.57;;;2.55;;
78686;SDS011;68002;52.310;6.990;2023-08-17T00:26:10;3.07;;;1.77;;
78686;SDS011;68002;52.310;6.990;2023-08-17T00:28:35;4.55;;;2.50;;
78686;SDS011;68002;52.310;6.990;2023-08-17T00:31:00;5.00;;;2.67;;
78686;SDS011;68002;52.310;6.990;2023-08-17T00:33:25;6.97;;;2.47;;
78686;SDS011;68002;52.310;6.990;2023-08-17T00:35:51;4.37;;;2.70;;
78686;SDS011;68002;52.310;6.990;2023-08-17T00:38:16;6.03;;;2.72;;
78686;SDS011;68002;52.310;6.990;2023-08-17T00:40:41;2.83;;;1.58;;
78686;SDS011;68002;52.310;6.990;2023-08-17T00:43:06;4.00;;;1.63;;
78686;SDS011;68002;52.310;6.990;2023-08-17T00:45:31;3.85;;;2.67;;
78686;SDS011;68002;52.310;6.990;2023-08-17T00:47:57;4.50;;;2.83;;
78686;SDS011;68002;52.310;6.990;2023-08-17T00:50:23;4.35;;;2.53;;
78686;SDS011;68002;52.310;6.990;2023-08-17T00:52:49;4.00;;;2.03;;
78686;SDS011;68002;52.310;6.990;2023-08-17T00:55:16;4.38;;;2.80;;
78686;SDS011;68002;52.310;6.990;2023-08-17T00:57:41;6.63;;;2.63;;
78686;SDS011;68002;52.310;6.990;2023-08-17T01:00:06;6.57;;;1.98;;
78686;SDS011;68002;52.310;6.990;2023-08-17T01:02:31;4.10;;;1.55;;
78686;SDS011;68002;52.310;6.990;2023-08-17T01:04:56;3.30;;;1.87;;
78686;SDS011;68002;52.310;6.990;2023-08-17T01:07:22;3.17;;;2.38;;
78686;SDS011;68002;52.310;6.990;2023-08-17T01:09:47;3.60;;;2.10;;
78686;SDS011;68002;52.310;6.990;2023-08-17T01:14:43;4.82;;;2.55;;
78686;SDS011;68002;52.310;6.990;2023-08-17T01:17:15;4.10;;;2.05;;
78686;SDS011;68002;52.310;6.990;2023-08-17T01:19:42;5.03;;;2.05;;
78686;SDS011;68002;52.310;6.990;2023-08-17T01:22:08;4.60;;;2.58;;
78686;SDS011;68002;52.310;6.990;2023-08-17T01:24:33;4.85;;;2.63;;
78686;SDS011;68002;52.310;6.990;2023-08-17T01:26:58;2.80;;;1.30;;
78686;SDS011;68002;52.310;6.990;2023-08-17T01:29:24;4.28;;;1.90;;
78686;SDS011;68002;52.310;6.990;2023-08-17T01:31:52;5.60;;;2.27;;
78686;SDS011;68002;52.310;6.990;2023-08-17T01:34:19;5.20;;;2.47;;
78686;SDS011;68002;52.310;6.990;2023-08-17T01:36:49;3.95;;;2.08;;
78686;SDS011;68002;52.310;6.990;2023-08-17T01:39:15;6.53;;;2.40;;
78686;SDS011;68002;52.310;6.990;2023-08-17T01:41:41;3.75;;;2.60;;
78686;SDS011;68002;52.310;6.990;2023-08-17T01:44:06;3.88;;;2.00;;
78686;SDS011;68002;52.310;6.990;2023-08-17T01:46:33;4.70;;;2.38;;
78686;SDS011;68002;52.310;6.990;2023-08-17T01:48:58;6.55;;;2.55;;
78686;SDS011;68002;52.310;6.990;2023-08-17T01:51:23;5.57;;;2.23;;
78686;SDS011;68002;52.310;6.990;2023-08-17T01:53:48;8.68;;;3.00;;
78686;SDS011;68002;52.310;6.990;2023-08-17T01:56:14;6.20;;;2.67;;
78686;SDS011;68002;52.310;6.990;2023-08-17T01:58:39;4.87;;;2.27;;
78686;SDS011;68002;52.310;6.990;2023-08-17T02:01:04;3.92;;;2.35;;
78686;SDS011;68002;52.310;6.990;2023-08-17T02:03:29;3.28;;;2.45;;
78686;SDS011;68002;52.310;6.990;2023-08-17T02:05:58;3.20;;;2.40;;
78686;SDS011;68002;52.310;6.990;2023-08-17T02:08:23;3.53;;;2.20;;
78686;SDS011;68002;52.310;6.990;2023-08-17T02:10:48;2.92;;;2.35;;
78686;SDS011;68002;52.310;6.990;2023-08-17T02:13:14;2.65;;;1.95;;
78686;SDS011;68002;52.310;6.990;2023-08-17T02:15:39;4.97;;;1.35;;
78686;SDS011;68002;52.310;6.990;2023-08-17T02:18:04;3.93;;;3.23;;
78686;SDS011;68002;52.310;6.990;2023-08-17T02:20:29;4.15;;;2.25;;
78686;SDS011;68002;52.310;6.990;2023-08-17T02:22:54;3.17;;;1.80;;
78686;SDS011;68002;52.310;6.990;2023-08-17T02:25:19;5.10;;;2.08;;
78686;SDS011;68002;52.310;6.990;2023-08-17T02:27:44;3.08;;;2.00;;
78686;SDS011;68002;52.310;6.990;2023-08-17T02:30:10;3.33;;;1.98;;
78686;SDS011;68002;52.310;6.990;2023-08-17T02:32:35;3.85;;;1.70;;
78686;SDS011;68002;52.310;6.990;2023-08-17T02:35:00;4.28;;;2.17;;
78686;SDS011;68002;52.310;6.990;2023-08-17T02:37:25;4.53;;;2.07;;
78686;SDS011;68002;52.310;6.990;2023-08-17T02:39:50;5.80;;;2.60;;
78686;SDS011;68002;52.310;6.990;2023-08-17T02:42:16;3.33;;;1.83;;
78686;SDS011;68002;52.310;6.990;2023-08-17T02:44:41;4.43;;;1.40;;
78686;SDS011;68002;52.310;6.990;2023-08-17T02:47:06;4.15;;;1.33;;
78686;SDS011;68002;52.310;6.990;2023-08-17T02:49:31;4.60;;;2.20;;
78686;SDS011;68002;52.310;6.990;2023-08-17T02:51:56;5.10;;;2.20;;
78686;SDS011;68002;52.310;6.990;2023-08-17T02:54:21;3.90;;;2.20;;
78686;SDS011;68002;52.310;6.990;2023-08-17T02:56:46;3.85;;;1.70;;
78686;SDS011;68002;52.310;6.990;2023-08-17T02:59:11;5.68;;;1.73;;
78686;SDS011;68002;52.310;6.990;2023-08-17T03:01:36;2.60;;;1.67;;
78686;SDS011;68002;52.310;6.990;2023-08-17T03:04:02;4.38;;;1.90;;
78686;SDS011;68002;52.310;6.990;2023-08-17T03:06:27;5.37;;;2.37;;
78686;SDS011;68002;52.310;6.990;2023-08-17T03:08:52;3.08;;;2.00;;
78686;SDS011;68002;52.310;6.990;2023-08-17T03:11:17;2.55;;;2.03;;
78686;SDS011;68002;52.310;6.990;2023-08-17T03:13:42;2.72;;;1.88;;
78686;SDS011;68002;52.310;6.990;2023-08-17T03:16:07;4.15;;;1.98;;
78686;SDS011;68002;52.310;6.990;2023-08-17T03:18:32;3.60;;;2.17;;
78686;SDS011;68002;52.310;6.990;2023-08-17T03:20:57;5.47;;;2.10;;
78686;SDS011;68002;52.310;6.990;2023-08-17T03:23:22;3.15;;;1.23;;
78686;SDS011;68002;52.310;6.990;2023-08-17T03:25:51;3.90;;;1.40;;
78686;SDS011;68002;52.310;6.990;2023-08-17T03:28:16;3.33;;;1.00;;
78686;SDS011;68002;52.310;6.990;2023-08-17T03:30:41;3.08;;;1.23;;
78686;SDS011;68002;52.310;6.990;2023-08-17T03:33:06;4.15;;;1.92;;
78686;SDS011;68002;52.310;6.990;2023-08-17T03:35:31;3.97;;;1.95;;
78686;SDS011;68002;52.310;6.990;2023-08-17T03:37:56;2.47;;;1.75;;
78686;SDS011;68002;52.310;6.990;2023-08-17T03:40:22;3.40;;;1.90;;
78686;SDS011;68002;52.310;6.990;2023-08-17T03:42:47;3.67;;;1.80;;
78686;SDS011;68002;52.310;6.990;2023-08-17T03:45:12;2.88;;;1.45;;
78686;SDS011;68002;52.310;6.990;2023-08-17T03:47:37;2.67;;;1.77;;
78686;SDS011;68002;52.310;6.990;2023-08-17T03:50:02;4.13;;;2.67;;
78686;SDS011;68002;52.310;6.990;2023-08-17T03:52:27;3.00;;;1.77;;
78686;SDS011;68002;52.310;6.990;2023-08-17T03:54:52;2.70;;;1.80;;
78686;SDS011;68002;52.310;6.990;2023-08-17T03:57:17;3.13;;;2.05;;
78686;SDS011;68002;52.310;6.990;2023-08-17T03:59:43;3.45;;;2.17;;
78686;SDS011;68002;52.310;6.990;2023-08-17T04:02:08;2.50;;;2.28;;
78686;SDS011;68002;52.310;6.990;2023-08-17T04:04:33;3.80;;;1.95;;
78686;SDS011;68002;52.310;6.990;2023-08-17T04:06:58;2.78;;;2.25;;
78686;SDS011;68002;52.310;6.990;2023-08-17T04:09:23;4.82;;;2.20;;
78686;SDS011;68002;52.310;6.990;2023-08-17T04:11:48;3.35;;;2.08;;
78686;SDS011;68002;52.310;6.990;2023-08-17T04:14:13;3.10;;;2.15;;
78686;SDS011;68002;52.310;6.990;2023-08-17T04:16:38;3.70;;;2.10;;
78686;SDS011;68002;52.310;6.990;2023-08-17T04:19:03;5.10;;;2.13;;
78686;SDS011;68002;52.310;6.990;2023-08-17T04:21:29;4.07;;;3.67;;
78686;SDS011;68002;52.310;6.990;2023-08-17T04:23:54;4.68;;;2.30;;
78686;SDS011;68002;52.310;6.990;2023-08-17T04:26:19;3.17;;;2.30;;
78686;SDS011;68002;52.310;6.990;2023-08-17T04:28:44;3.72;;;2.28;;
78686;SDS011;68002;52.310;6.990;2023-08-17T04:31:09;3.17;;;1.83;;
78686;SDS011;68002;52.310;6.990;2023-08-17T04:33:34;3.08;;;2.13;;
78686;SDS011;68002;52.310;6.990;2023-08-17T04:35:59;3.47;;;1.90;;
78686;SDS011;68002;52.310;6.990;2023-08-17T04:38:25;3.58;;;1.83;;
78686;SDS011;68002;52.310;6.990;2023-08-17T04:40:50;4.32;;;2.17;;
78686;SDS011;68002;52.310;6.990;2023-08-17T04:43:15;2.97;;;2.03;;
78686;SDS011;68002;52.310;6.990;2023-08-17T04:45:40;5.53;;;2.70;;
78686;SDS011;68002;52.310;6.990;2023-08-17T04:48:06;2.65;;;1.23;;
78686;SDS011;68002;52.310;6.990;2023-08-17T04:50:31;3.72;;;2.25;;
78686;SDS011;68002;52.310;6.990;2023-08-17T04:52:56;3.00;;;2.20;;
78686;SDS011;68002;52.310;6.990;2023-08-17T04:55:21;3.30;;;2.00;;
78686;SDS011;68002;52.310;6.990;2023-08-17T04:57:46;5.32;;;2.10;;
78686;SDS011;68002;52.310;6.990;2023-08-17T05:00:12;4.38;;;2.28;;
78686;SDS011;68002;52.310;6.990;2023-08-17T05:02:37;3.90;;;2.45;;
78686;SDS011;68002;52.310;6.990;2023-08-17T05:05:04;4.03;;;2.22;;
78686;SDS011;68002;52.310;6.990;2023-08-17T05:07:29;4.55;;;2.65;;
78686;SDS011;68002;52.310;6.990;2023-08-17T05:09:54;3.55;;;2.25;;
78686;SDS011;68002;52.310;6.990;2023-08-17T05:12:19;3.83;;;2.15;;
78686;SDS011;68002;52.310;6.990;2023-08-17T05:14:44;2.75;;;1.60;;
78686;SDS011;68002;52.310;6.990;2023-08-17T05:17:10;3.03;;;2.05;;
78686;SDS011;68002;52.310;6.990;2023-08-17T05:19:35;5.32;;;2.28;;
78686;SDS011;68002;52.310;6.990;2023-08-17T05:22:00;3.63;;;1.80;;
78686;SDS011;68002;52.310;6.990;2023-08-17T05:24:25;2.92;;;2.20;;
78686;SDS011;68002;52.310;6.990;2023-08-17T05:26:50;5.43;;;2.53;;
78686;SDS011;68002;52.310;6.990;2023-08-17T05:29:15;7.75;;;2.17;;
78686;SDS011;68002;52.310;6.990;2023-08-17T05:31:40;4.20;;;2.22;;
78686;SDS011;68002;52.310;6.990;2023-08-17T05:34:05;5.90;;;2.55;;
78686;SDS011;68002;52.310;6.990;2023-08-17T05:36:30;4.90;;;2.13;;
78686;SDS011;68002;52.310;6.990;2023-08-17T05:38:56;5.72;;;2.45;;
78686;SDS011;68002;52.310;6.990;2023-08-17T05:41:21;2.75;;;2.22;;
78686;SDS011;68002;52.310;6.990;2023-08-17T05:43:46;4.47;;;2.05;;
78686;SDS011;68002;52.310;6.990;2023-08-17T05:46:11;6.53;;;2.35;;
78686;SDS011;68002;52.310;6.990;2023-08-17T05:48:36;2.97;;;2.03;;
78686;SDS011;68002;52.310;6.990;2023-08-17T05:51:01;3.70;;;1.77;;
78686;SDS011;68002;52.310;6.990;2023-08-17T05:53:26;4.20;;;2.05;;
78686;SDS011;68002;52.310;6.990;2023-08-17T05:55:51;3.67;;;2.35;;
78686;SDS011;68002;52.310;6.990;2023-08-17T05:58:16;3.25;;;2.25;;
78686;SDS011;68002;52.310;6.990;2023-08-17T06:00:42;4.20;;;2.35;;
78686;SDS011;68002;52.310;6.990;2023-08-17T06:03:07;5.05;;;2.30;;
78686;SDS011;68002;52.310;6.990;2023-08-17T06:05:32;3.20;;;2.28;;
78686;SDS011;68002;52.310;6.990;2023-08-17T06:07:57;4.10;;;2.35;;
78686;SDS011;68002;52.310;6.990;2023-08-17T06:10:23;3.45;;;2.33;;
78686;SDS011;68002;52.310;6.990;2023-08-17T06:12:48;4.85;;;2.20;;
78686;SDS011;68002;52.310;6.990;2023-08-17T06:15:13;4.30;;;3.22;;
78686;SDS011;68002;52.310;6.990;2023-08-17T06:17:38;4.93;;;2.83;;
78686;SDS011;68002;52.310;6.990;2023-08-17T06:20:04;3.58;;;2.38;;
78686;SDS011;68002;52.310;6.990;2023-08-17T06:22:29;4.22;;;2.47;;
78686;SDS011;68002;52.310;6.990;2023-08-17T06:24:54;3.78;;;2.67;;
78686;SDS011;68002;52.310;6.990;2023-08-17T06:27:19;3.92;;;2.45;;
78686;SDS011;68002;52.310;6.990;2023-08-17T06:29:44;4.70;;;2.28;;
78686;SDS011;68002;52.310;6.990;2023-08-17T06:32:09;4.73;;;2.20;;
78686;SDS011;68002;52.310;6.990;2023-08-17T06:34:35;4.95;;;2.72;;
78686;SDS011;68002;52.310;6.990;2023-08-17T06:37:01;3.78;;;2.45;;
78686;SDS011;68002;52.310;6.990;2023-08-17T06:39:26;4.65;;;2.40;;
78686;SDS011;68002;52.310;6.990;2023-08-17T06:41:52;4.97;;;3.47;;
78686;SDS011;68002;52.310;6.990;2023-08-17T06:44:17;4.57;;;2.50;;
78686;SDS011;68002;52.310;6.990;2023-08-17T06:46:42;4.10;;;2.13;;
78686;SDS011;68002;52.310;6.990;2023-08-17T06:49:07;4.22;;;2.58;;
78686;SDS011;68002;52.310;6.990;2023-08-17T06:51:32;3.88;;;2.80;;
78686;SDS011;68002;52.310;6.990;2023-08-17T06:53:57;4.50;;;2.40;;
78686;SDS011;68002;52.310;6.990;2023-08-17T06:56:22;4.60;;;1.77;;
78686;SDS011;68002;52.310;6.990;2023-08-17T06:58:48;6.07;;;2.57;;
78686;SDS011;68002;52.310;6.990;2023-08-17T07:01:13;6.83;;;2.60;;
78686;SDS011;68002;52.310;6.990;2023-08-17T07:03:38;4.78;;;2.53;;
78686;SDS011;68002;52.310;6.990;2023-08-17T07:06:03;5.20;;;2.58;;
78686;SDS011;68002;52.310;6.990;2023-08-17T07:08:28;4.60;;;2.10;;
78686;SDS011;68002;52.310;6.990;2023-08-17T07:10:53;4.00;;;2.55;;
78686;SDS011;68002;52.310;6.990;2023-08-17T07:13:18;4.32;;;3.30;;
78686;SDS011;68002;52.310;6.990;2023-08-17T07:15:43;3.22;;;2.20;;
78686;SDS011;68002;52.310;6.990;2023-08-17T07:18:09;6.30;;;2.73;;
78686;SDS011;68002;52.310;6.990;2023-08-17T07:20:34;4.85;;;1.85;;
78686;SDS011;68002;52.310;6.990;2023-08-17T07:22:59;4.50;;;2.47;;
78686;SDS011;68002;52.310;6.990;2023-08-17T07:25:24;3.47;;;1.90;;
78686;SDS011;68002;52.310;6.990;2023-08-17T07:27:49;2.55;;;1.75;;
78686;SDS011;68002;52.310;6.990;2023-08-17T07:30:14;4.03;;;1.35;;
78686;SDS011;68002;52.310;6.990;2023-08-17T07:32:40;4.00;;;2.20;;
78686;SDS011;68002;52.310;6.990;2023-08-17T07:35:05;5.32;;;2.35;;
78686;SDS011;68002;52.310;6.990;2023-08-17T07:37:30;5.05;;;2.00;;
78686;SDS011;68002;52.310;6.990;2023-08-17T07:39:55;4.20;;;2.35;;
78686;SDS011;68002;52.310;6.990;2023-08-17T07:42:20;6.53;;;2.60;;
78686;SDS011;68002;52.310;6.990;2023-08-17T07:44:45;4.93;;;2.47;;
78686;SDS011;68002;52.310;6.990;2023-08-17T07:47:11;3.83;;;2.60;;
78686;SDS011;68002;52.310;6.990;2023-08-17T07:49:36;7.35;;;3.38;;
78686;SDS011;68002;52.310;6.990;2023-08-17T07:52:01;4.95;;;2.92;;
78686;SDS011;68002;52.310;6.990;2023-08-17T07:54:26;4.47;;;2.97;;
78686;SDS011;68002;52.310;6.990;2023-08-17T07:56:51;6.05;;;2.25;;
78686;SDS011;68002;52.310;6.990;2023-08-17T07:59:16;4.65;;;2.60;;
78686;SDS011;68002;52.310;6.990;2023-08-17T08:01:41;6.75;;;3.65;;
78686;SDS011;68002;52.310;6.990;2023-08-17T08:04:06;3.13;;;2.45;;
78686;SDS011;68002;52.310;6.990;2023-08-17T08:06:32;2.92;;;2.45;;
78686;SDS011;68002;52.310;6.990;2023-08-17T08:08:57;3.40;;;2.57;;
78686;SDS011;68002;52.310;6.990;2023-08-17T08:11:22;4.55;;;2.25;;
78686;SDS011;68002;52.310;6.990;2023-08-17T08:13:47;4.95;;;2.78;;
78686;SDS011;68002;52.310;6.990;2023-08-17T08:16:12;3.30;;;2.22;;
78686;SDS011;68002;52.310;6.990;2023-08-17T08:18:37;5.72;;;2.95;;
78686;SDS011;68002;52.310;6.990;2023-08-17T08:21:02;4.07;;;2.30;;
78686;SDS011;68002;52.310;6.990;2023-08-17T08:23:27;4.65;;;2.28;;
78686;SDS011;68002;52.310;6.990;2023-08-17T08:25:53;3.45;;;2.50;;
78686;SDS011;68002;52.310;6.990;2023-08-17T08:28:18;7.10;;;3.60;;
78686;SDS011;68002;52.310;6.990;2023-08-17T08:30:43;5.18;;;2.90;;
78686;SDS011;68002;52.310;6.990;2023-08-17T08:33:08;5.43;;;2.95;;
78686;SDS011;68002;52.310;6.990;2023-08-17T08:35:33;4.57;;;2.65;;
78686;SDS011;68002;52.310;6.990;2023-08-17T08:37:58;4.80;;;2.53;;
78686;SDS011;68002;52.310;6.990;2023-08-17T08:40:27;5.40;;;3.03;;
78686;SDS011;68002;52.310;6.990;2023-08-17T08:42:53;5.25;;;3.13;;
78686;SDS011;68002;52.310;6.990;2023-08-17T08:45:18;8.10;;;2.40;;
78686;SDS011;68002;52.310;6.990;2023-08-17T08:47:43;4.73;;;3.27;;
78686;SDS011;68002;52.310;6.990;2023-08-17T08:50:09;5.30;;;2.88;;
78686;SDS011;68002;52.310;6.990;2023-08-17T08:52:42;5.38;;;2.70;;
78686;SDS011;68002;52.310;6.990;2023-08-17T08:55:12;3.13;;;2.58;;
78686;SDS011;68002;52.310;6.990;2023-08-17T08:57:40;5.55;;;2.30;;
78686;SDS011;68002;52.310;6.990;2023-08-17T09:00:06;7.43;;;1.90;;
78686;SDS011;68002;52.310;6.990;2023-08-17T09:02:31;6.22;;;3.53;;
78686;SDS011;68002;52.310;6.990;2023-08-17T09:04:57;5.25;;;3.28;;
78686;SDS011;68002;52.310;6.990;2023-08-17T09:07:24;5.57;;;3.78;;
78686;SDS011;68002;52.310;6.990;2023-08-17T09:09:49;7.82;;;4.10;;
78686;SDS011;68002;52.310;6.990;2023-08-17T09:12:14;5.53;;;3.72;;
78686;SDS011;68002;52.310;6.990;2023-08-17T09:14:40;4.03;;;3.27;;
78686;SDS011;68002;52.310;6.990;2023-08-17T09:17:05;4.80;;;4.15;;
78686;SDS011;68002;52.310;6.990;2023-08-17T09:19:33;3.80;;;3.35;;
78686;SDS011;68002;52.310;6.990;2023-08-17T09:21:59;4.93;;;3.47;;
78686;SDS011;68002;52.310;6.990;2023-08-17T09:24:33;5.05;;;3.42;;
78686;SDS011;68002;52.310;6.990;2023-08-17T09:26:58;5.63;;;3.83;;
78686;SDS011;68002;52.310;6.990;2023-08-17T09:29:23;7.53;;;4.20;;
78686;SDS011;68002;52.310;6.990;2023-08-17T09:31:48;5.70;;;4.40;;
78686;SDS011;68002;52.310;6.990;2023-08-17T09:34:16;5.60;;;4.95;;
78686;SDS011;68002;52.310;6.990;2023-08-17T09:36:41;6.55;;;4.47;;
78686;SDS011;68002;52.310;6.990;2023-08-17T09:39:06;5.53;;;4.15;;
78686;SDS011;68002;52.310;6.990;2023-08-17T09:41:37;5.35;;;3.92;;
78686;SDS011;68002;52.310;6.990;2023-08-17T09:44:03;5.43;;;3.47;;
78686;SDS011;68002;52.310;6.990;2023-08-17T09:46:28;5.22;;;4.00;;
78686;SDS011;68002;52.310;6.990;2023-08-17T09:48:54;4.10;;;3.15;;
78686;SDS011;68002;52.310;6.990;2023-08-17T09:51:19;4.22;;;3.70;;
78686;SDS011;68002;52.310;6.990;2023-08-17T09:53:44;5.63;;;3.95;;
78686;SDS011;68002;52.310;6.990;2023-08-17T09:56:09;5.53;;;3.55;;
78686;SDS011;68002;52.310;6.990;2023-08-17T09:58:34;4.63;;;3.35;;
78686;SDS011;68002;52.310;6.990;2023-08-17T10:01:01;4.78;;;3.40;;
78686;SDS011;68002;52.310;6.990;2023-08-17T10:03:28;5.30;;;3.33;;
78686;SDS011;68002;52.310;6.990;2023-08-17T10:06:04;5.90;;;4.32;;
78686;SDS011;68002;52.310;6.990;2023-08-17T10:10:54;5.40;;;4.53;;
78686;SDS011;68002;52.310;6.990;2023-08-17T10:13:42;5.28;;;4.07;;
78686;SDS011;68002;52.310;6.990;2023-08-17T10:16:11;5.30;;;4.80;;
78686;SDS011;68002;52.310;6.990;2023-08-17T10:21:18;5.10;;;3.20;;
78686;SDS011;68002;52.310;6.990;2023-08-17T10:23:45;5.90;;;3.72;;
78686;SDS011;68002;52.310;6.990;2023-08-17T10:26:10;6.57;;;4.20;;
78686;SDS011;68002;52.310;6.990;2023-08-17T10:28:35;5.17;;;3.57;;
78686;SDS011;68002;52.310;6.990;2023-08-17T10:31:01;4.80;;;3.35;;
78686;SDS011;68002;52.310;6.990;2023-08-17T10:33:26;5.30;;;3.83;;
78686;SDS011;68002;52.310;6.990;2023-08-17T10:35:52;7.55;;;5.68;;
78686;SDS011;68002;52.310;6.990;2023-08-17T10:38:17;8.13;;;5.63;;
78686;SDS011;68002;52.310;6.990;2023-08-17T10:40:42;5.20;;;3.13;;
78686;SDS011;68002;52.310;6.990;2023-08-17T10:43:08;5.85;;;4.00;;
78686;SDS011;68002;52.310;6.990;2023-08-17T10:45:34;3.83;;;3.43;;
78686;SDS011;68002;52.310;6.990;2023-08-17T10:48:44;5.60;;;3.80;;
78686;SDS011;68002;52.310;6.990;2023-08-17T10:50:58;6.20;;;4.93;;
78686;SDS011;68002;52.310;6.990;2023-08-17T10:53:23;4.82;;;2.83;;
78686;SDS011;68002;52.310;6.990;2023-08-17T10:55:48;6.32;;;5.72;;
78686;SDS011;68002;52.310;6.990;2023-08-17T10:58:14;6.28;;;4.00;;
78686;SDS011;68002;52.310;6.990;2023-08-17T11:00:39;8.52;;;5.72;;
78686;SDS011;68002;52.310;6.990;2023-08-17T11:03:08;5.03;;;3.60;;
78686;SDS011;68002;52.310;6.990;2023-08-17T11:05:43;7.57;;;4.32;;
78686;SDS011;68002;52.310;6.990;2023-08-17T11:08:10;5.47;;;3.83;;
78686;SDS011;68002;52.310;6.990;2023-08-17T11:10:35;5.85;;;4.10;;
78686;SDS011;68002;52.310;6.990;2023-08-17T11:13:00;6.27;;;4.73;;
78686;SDS011;68002;52.310;6.990;2023-08-17T11:15:26;5.78;;;4.50;;
78686;SDS011;68002;52.310;6.990;2023-08-17T11:17:51;8.07;;;5.93;;
78686;SDS011;68002;52.310;6.990;2023-08-17T11:20:16;5.93;;;4.47;;
78686;SDS011;68002;52.310;6.990;2023-08-17T11:22:41;5.97;;;4.80;;
78686;SDS011;68002;52.310;6.990;2023-08-17T11:25:06;6.88;;;4.65;;
78686;SDS011;68002;52.310;6.990;2023-08-17T11:27:32;8.47;;;5.30;;
78686;SDS011;68002;52.310;6.990;2023-08-17T11:29:58;6.32;;;4.45;;
78686;SDS011;68002;52.310;6.990;2023-08-17T11:32:23;5.43;;;4.90;;
78686;SDS011;68002;52.310;6.990;2023-08-17T11:34:48;7.65;;;4.78;;
78686;SDS011;68002;52.310;6.990;2023-08-17T11:37:13;7.30;;;4.70;;
78686;SDS011;68002;52.310;6.990;2023-08-17T11:39:38;8.23;;;6.05;;
78686;SDS011;68002;52.310;6.990;2023-08-17T11:42:03;8.32;;;5.80;;
78686;SDS011;68002;52.310;6.990;2023-08-17T11:44:29;7.35;;;4.00;;
78686;SDS011;68002;52.310;6.990;2023-08-17T11:46:54;6.88;;;5.63;;
78686;SDS011;68002;52.310;6.990;2023-08-17T11:49:19;7.43;;;5.70;;
78686;SDS011;68002;52.310;6.990;2023-08-17T11:51:44;10.40;;;6.88;;
78686;SDS011;68002;52.310;6.990;2023-08-17T11:54:09;9.00;;;6.03;;
78686;SDS011;68002;52.310;6.990;2023-08-17T11:56:34;9.98;;;7.13;;
78686;SDS011;68002;52.310;6.990;2023-08-17T11:59:08;11.60;;;7.75;;
78686;SDS011;68002;52.310;6.990;2023-08-17T12:01:33;8.02;;;6.78;;
78686;SDS011;68002;52.310;6.990;2023-08-17T12:03:58;9.60;;;6.37;;
78686;SDS011;68002;52.310;6.990;2023-08-17T12:06:23;12.50;;;9.25;;
78686;SDS011;68002;52.310;6.990;2023-08-17T12:08:49;9.50;;;7.93;;
78686;SDS011;68002;52.310;6.990;2023-08-17T12:11:15;8.43;;;7.53;;
78686;SDS011;68002;52.310;6.990;2023-08-17T12:13:40;8.60;;;6.65;;
78686;SDS011;68002;52.310;6.990;2023-08-17T12:16:05;11.60;;;6.93;;
78686;SDS011;68002;52.310;6.990;2023-08-17T12:18:33;8.77;;;7.70;;
78686;SDS011;68002;52.310;6.990;2023-08-17T12:20:59;9.02;;;6.63;;
78686;SDS011;68002;52.310;6.990;2023-08-17T12:23:24;10.93;;;7.77;;
78686;SDS011;68002;52.310;6.990;2023-08-17T12:25:55;10.93;;;8.05;;
78686;SDS011;68002;52.310;6.990;2023-08-17T12:28:21;11.55;;;8.45;;
78686;SDS011;68002;52.310;6.990;2023-08-17T12:30:46;10.52;;;8.80;;
78686;SDS011;68002;52.310;6.990;2023-08-17T12:33:11;11.65;;;7.88;;
78686;SDS011;68002;52.310;6.990;2023-08-17T12:35:36;7.95;;;7.10;;
78686;SDS011;68002;52.310;6.990;2023-08-17T12:38:02;11.88;;;9.48;;
78686;SDS011;68002;52.310;6.990;2023-08-17T12:40:27;10.97;;;8.47;;
78686;SDS011;68002;52.310;6.990;2023-08-17T12:42:52;9.75;;;8.35;;
78686;SDS011;68002;52.310;6.990;2023-08-17T12:45:17;10.00;;;7.38;;
78686;SDS011;68002;52.310;6.990;2023-08-17T12:47:42;11.05;;;8.15;;
78686;SDS011;68002;52.310;6.990;2023-08-17T12:50:07;9.68;;;6.85;;
78686;SDS011;68002;52.310;6.990;2023-08-17T12:52:33;8.88;;;7.43;;
78686;SDS011;68002;52.310;6.990;2023-08-17T12:54:58;9.30;;;7.53;;
78686;SDS011;68002;52.310;6.990;2023-08-17T12:57:23;7.43;;;6.30;;
78686;SDS011;68002;52.310;6.990;2023-08-17T12:59:48;9.15;;;7.68;;
78686;SDS011;68002;52.310;6.990;2023-08-17T13:02:13;8.85;;;7.10;;
78686;SDS011;68002;52.310;6.990;2023-08-17T13:04:39;7.85;;;6.03;;
78686;SDS011;68002;52.310;6.990;2023-08-17T13:07:04;10.23;;;7.75;;
78686;SDS011;68002;52.310;6.990;2023-08-17T13:09:29;8.05;;;6.85;;
78686;SDS011;68002;52.310;6.990;2023-08-17T13:11:54;12.25;;;8.30;;
78686;SDS011;68002;52.310;6.990;2023-08-17T13:14:19;8.45;;;7.55;;
78686;SDS011;68002;52.310;6.990;2023-08-17T13:16:45;9.52;;;6.70;;
78686;SDS011;68002;52.310;6.990;2023-08-17T13:19:10;9.95;;;8.95;;
78686;SDS011;68002;52.310;6.990;2023-08-17T13:21:35;10.75;;;7.75;;
78686;SDS011;68002;52.310;6.990;2023-08-17T13:24:00;9.07;;;7.53;;
78686;SDS011;68002;52.310;6.990;2023-08-17T13:26:25;8.57;;;7.00;;
78686;SDS011;68002;52.310;6.990;2023-08-17T13:28:50;8.13;;;6.80;;
78686;SDS011;68002;52.310;6.990;2023-08-17T13:31:15;6.70;;;6.05;;
78686;SDS011;68002;52.310;6.990;2023-08-17T13:33:41;9.37;;;6.60;;
78686;SDS011;68002;52.310;6.990;2023-08-17T13:36:06;9.10;;;6.93;;
78686;SDS011;68002;52.310;6.990;2023-08-17T13:38:31;6.95;;;6.13;;
78686;SDS011;68002;52.310;6.990;2023-08-17T13:40:56;7.03;;;5.82;;
78686;SDS011;68002;52.310;6.990;2023-08-17T13:43:21;8.10;;;6.67;;
78686;SDS011;68002;52.310;6.990;2023-08-17T13:45:46;7.28;;;6.07;;
78686;SDS011;68002;52.310;6.990;2023-08-17T13:48:12;7.30;;;5.80;;
78686;SDS011;68002;52.310;6.990;2023-08-17T13:50:37;8.30;;;5.85;;
78686;SDS011;68002;52.310;6.990;2023-08-17T13:53:02;6.53;;;4.93;;
78686;SDS011;68002;52.310;6.990;2023-08-17T13:55:28;6.37;;;5.30;;
78686;SDS011;68002;52.310;6.990;2023-08-17T13:57:53;6.50;;;5.72;;
78686;SDS011;68002;52.310;6.990;2023-08-17T14:00:18;7.20;;;6.15;;
78686;SDS011;68002;52.310;6.990;2023-08-17T14:02:43;7.35;;;6.30;;
78686;SDS011;68002;52.310;6.990;2023-08-17T14:05:08;8.05;;;7.22;;
78686;SDS011;68002;52.310;6.990;2023-08-17T14:07:33;8.60;;;7.55;;
78686;SDS011;68002;52.310;6.990;2023-08-17T14:09:58;9.88;;;7.32;;
78686;SDS011;68002;52.310;6.990;2023-08-17T14:12:24;10.02;;;7.40;;
78686;SDS011;68002;52.310;6.990;2023-08-17T14:14:49;9.18;;;7.90;;
78686;SDS011;68002;52.310;6.990;2023-08-17T14:17:14;9.60;;;8.43;;
78686;SDS011;68002;52.310;6.990;2023-08-17T14:19:39;7.63;;;6.63;;
78686;SDS011;68002;52.310;6.990;2023-08-17T14:22:04;8.35;;;7.55;;
78686;SDS011;68002;52.310;6.990;2023-08-17T14:24:29;9.57;;;7.55;;
78686;SDS011;68002;52.310;6.990;2023-08-17T14:26:54;9.25;;;8.27;;
78686;SDS011;68002;52.310;6.990;2023-08-17T14:29:19;6.72;;;5.75;;
78686;SDS011;68002;52.310;6.990;2023-08-17T14:31:44;9.00;;;7.65;;
78686;SDS011;68002;52.310;6.990;2023-08-17T14:34:10;8.77;;;7.22;;
78686;SDS011;68002;52.310;6.990;2023-08-17T14:36:35;8.52;;;7.03;;
78686;SDS011;68002;52.310;6.990;2023-08-17T14:39:00;9.18;;;7.80;;
78686;SDS011;68002;52.310;6.990;2023-08-17T14:41:25;8.32;;;7.63;;
78686;SDS011;68002;52.310;6.990;2023-08-17T14:43:50;8.13;;;5.70;;
78686;SDS011;68002;52.310;6.990;2023-08-17T14:46:15;8.68;;;7.78;;